Terminal Aerodrome Forecast
Issued by NWS Cleveland, OH

Home | Current Version | Previous Version | Text Only | Print | Product List | Glossary On
Versions: 1 2 3 4 5 6 7 8 9 10 11 12 13 14
000
FTUS41 KCLE 021727
TAFCAK
TAF
KCAK 021727Z 0218/0318 23010KT P6SM SCT060
     FM022300 20008KT P6SM SCT200
     FM030800 21010KT P6SM VCSH BKN050
     FM031600 21012KT P6SM VCTS SCT030 BKN050CB=

USA.gov is the U.S. government's official web portal to all federal, state and local government web resources and services.